sensor_id;sensor_type;location;lat;lon;timestamp;temperature;humidity
7046;DHT22;3564;53.326;10.356;2022-12-18T00:00:56;0.20;91.30
7046;DHT22;3564;53.326;10.356;2022-12-18T00:03:22;0.10;91.30
7046;DHT22;3564;53.326;10.356;2022-12-18T00:05:49;0.10;91.10
7046;DHT22;3564;53.326;10.356;2022-12-18T00:08:15;0.10;91.00
7046;DHT22;3564;53.326;10.356;2022-12-18T00:10:41;0.10;91.00
7046;DHT22;3564;53.326;10.356;2022-12-18T00:13:06;0.00;91.00
7046;DHT22;3564;53.326;10.356;2022-12-18T00:15:34;0.00;91.10
7046;DHT22;3564;53.326;10.356;2022-12-18T00:18:00;0.00;91.10
7046;DHT22;3564;53.326;10.356;2022-12-18T00:20:25;0.00;91.10
7046;DHT22;3564;53.326;10.356;2022-12-18T00:22:54;0.00;91.20
7046;DHT22;3564;53.326;10.356;2022-12-18T00:25:20;0.00;91.20
7046;DHT22;3564;53.326;10.356;2022-12-18T00:27:45;0.00;90.80
7046;DHT22;3564;53.326;10.356;2022-12-18T00:30:11;-0.10;90.80
7046;DHT22;3564;53.326;10.356;2022-12-18T00:32:37;-0.10;90.70
7046;DHT22;3564;53.326;10.356;2022-12-18T00:35:03;-0.10;90.90
7046;DHT22;3564;53.326;10.356;2022-12-18T00:37:29;-0.10;90.90
7046;DHT22;3564;53.326;10.356;2022-12-18T00:39:55;-0.10;90.90
7046;DHT22;3564;53.326;10.356;2022-12-18T00:42:20;-0.20;90.80
7046;DHT22;3564;53.326;10.356;2022-12-18T00:45:04;-0.20;91.00
7046;DHT22;3564;53.326;10.356;2022-12-18T00:47:31;-0.20;91.20
7046;DHT22;3564;53.326;10.356;2022-12-18T00:49:57;-0.30;91.20
7046;DHT22;3564;53.326;10.356;2022-12-18T00:52:22;-0.30;91.30
7046;DHT22;3564;53.326;10.356;2022-12-18T00:54:48;-0.30;91.20
7046;DHT22;3564;53.326;10.356;2022-12-18T00:57:15;-0.30;91.00
7046;DHT22;3564;53.326;10.356;2022-12-18T00:59:40;-0.30;90.90
7046;DHT22;3564;53.326;10.356;2022-12-18T01:02:06;-0.30;90.90
7046;DHT22;3564;53.326;10.356;2022-12-18T01:04:32;-0.30;90.70
7046;DHT22;3564;53.326;10.356;2022-12-18T01:06:59;-0.30;90.70
7046;DHT22;3564;53.326;10.356;2022-12-18T01:09:25;-0.30;90.90
7046;DHT22;3564;53.326;10.356;2022-12-18T01:11:51;-0.30;91.00
7046;DHT22;3564;53.326;10.356;2022-12-18T01:14:16;-0.30;91.00
7046;DHT22;3564;53.326;10.356;2022-12-18T01:16:42;-0.40;90.70
7046;DHT22;3564;53.326;10.356;2022-12-18T01:19:08;-0.40;90.60
7046;DHT22;3564;53.326;10.356;2022-12-18T01:21:33;-0.40;90.30
7046;DHT22;3564;53.326;10.356;2022-12-18T01:23:59;-0.50;90.20
7046;DHT22;3564;53.326;10.356;2022-12-18T01:26:25;-0.50;90.30
7046;DHT22;3564;53.326;10.356;2022-12-18T01:28:54;-0.50;90.40
7046;DHT22;3564;53.326;10.356;2022-12-18T01:31:25;-0.60;90.50
7046;DHT22;3564;53.326;10.356;2022-12-18T01:33:52;-0.60;90.50
7046;DHT22;3564;53.326;10.356;2022-12-18T01:38:48;-0.60;90.50
7046;DHT22;3564;53.326;10.356;2022-12-18T01:41:16;-0.60;90.60
7046;DHT22;3564;53.326;10.356;2022-12-18T01:43:56;-0.70;90.70
7046;DHT22;3564;53.326;10.356;2022-12-18T01:46:24;-0.70;90.80
7046;DHT22;3564;53.326;10.356;2022-12-18T01:48:54;-0.70;91.30
7046;DHT22;3564;53.326;10.356;2022-12-18T01:51:20;-0.70;91.10
7046;DHT22;3564;53.326;10.356;2022-12-18T01:53:47;-0.60;91.20
7046;DHT22;3564;53.326;10.356;2022-12-18T01:56:15;-0.70;91.20
7046;DHT22;3564;53.326;10.356;2022-12-18T02:01:25;-0.70;91.10
7046;DHT22;3564;53.326;10.356;2022-12-18T02:03:52;-0.70;91.20
7046;DHT22;3564;53.326;10.356;2022-12-18T02:06:29;-0.70;91.30
7046;DHT22;3564;53.326;10.356;2022-12-18T02:09:33;-0.70;91.30
7046;DHT22;3564;53.326;10.356;2022-12-18T02:12:22;-0.60;91.40
7046;DHT22;3564;53.326;10.356;2022-12-18T02:17:22;-0.60;91.40
7046;DHT22;3564;53.326;10.356;2022-12-18T02:27:46;-0.70;91.20
7046;DHT22;3564;53.326;10.356;2022-12-18T02:30:12;-0.70;91.20
7046;DHT22;3564;53.326;10.356;2022-12-18T02:32:42;-0.70;91.30
7046;DHT22;3564;53.326;10.356;2022-12-18T02:35:13;-0.70;91.30
7046;DHT22;3564;53.326;10.356;2022-12-18T02:37:42;-0.70;91.30
7046;DHT22;3564;53.326;10.356;2022-12-18T02:40:09;-0.80;91.10
7046;DHT22;3564;53.326;10.356;2022-12-18T02:42:36;-0.80;91.00
7046;DHT22;3564;53.326;10.356;2022-12-18T02:45:02;-0.90;91.10
7046;DHT22;3564;53.326;10.356;2022-12-18T02:47:32;-0.80;91.00
7046;DHT22;3564;53.326;10.356;2022-12-18T02:53:19;-0.90;90.50
7046;DHT22;3564;53.326;10.356;2022-12-18T02:56:18;-0.90;90.60
7046;DHT22;3564;53.326;10.356;2022-12-18T03:01:24;-1.00;90.70
7046;DHT22;3564;53.326;10.356;2022-12-18T03:04:07;-1.00;90.70
7046;DHT22;3564;53.326;10.356;2022-12-18T03:06:48;-1.10;90.40
7046;DHT22;3564;53.326;10.356;2022-12-18T03:09:36;-1.10;90.40
7046;DHT22;3564;53.326;10.356;2022-12-18T03:12:19;-1.10;90.50
7046;DHT22;3564;53.326;10.356;2022-12-18T03:17:41;-1.10;90.30
7046;DHT22;3564;53.326;10.356;2022-12-18T03:20:13;-1.20;90.20
7046;DHT22;3564;53.326;10.356;2022-12-18T03:22:42;-1.20;90.10
7046;DHT22;3564;53.326;10.356;2022-12-18T03:25:11;-1.20;89.60
7046;DHT22;3564;53.326;10.356;2022-12-18T03:27:43;-1.30;89.70
7046;DHT22;3564;53.326;10.356;2022-12-18T03:30:13;-1.30;90.10
7046;DHT22;3564;53.326;10.356;2022-12-18T03:32:53;-1.30;90.30
7046;DHT22;3564;53.326;10.356;2022-12-18T03:35:26;-1.30;90.10
7046;DHT22;3564;53.326;10.356;2022-12-18T03:37:53;-1.30;90.30
7046;DHT22;3564;53.326;10.356;2022-12-18T03:40:23;-1.40;90.00
7046;DHT22;3564;53.326;10.356;2022-12-18T03:42:59;-1.40;90.10
7046;DHT22;3564;53.326;10.356;2022-12-18T03:48:11;-1.40;90.30
7046;DHT22;3564;53.326;10.356;2022-12-18T03:56:02;-1.40;90.30
7046;DHT22;3564;53.326;10.356;2022-12-18T03:58:32;-1.40;90.40
7046;DHT22;3564;53.326;10.356;2022-12-18T04:01:02;-1.40;90.30
7046;DHT22;3564;53.326;10.356;2022-12-18T04:03:29;-1.50;90.10
7046;DHT22;3564;53.326;10.356;2022-12-18T04:05:59;-1.50;90.10
7046;DHT22;3564;53.326;10.356;2022-12-18T04:08:25;-1.50;90.20
7046;DHT22;3564;53.326;10.356;2022-12-18T04:10:51;-1.50;90.30
7046;DHT22;3564;53.326;10.356;2022-12-18T04:13:24;-1.50;90.40
7046;DHT22;3564;53.326;10.356;2022-12-18T04:15:52;-1.50;90.40
7046;DHT22;3564;53.326;10.356;2022-12-18T04:18:18;-1.50;90.40
7046;DHT22;3564;53.326;10.356;2022-12-18T04:20:44;-1.50;90.40
7046;DHT22;3564;53.326;10.356;2022-12-18T04:23:09;-1.40;90.50
7046;DHT22;3564;53.326;10.356;2022-12-18T04:25:35;-1.40;90.60
7046;DHT22;3564;53.326;10.356;2022-12-18T04:28:00;-1.40;90.70
7046;DHT22;3564;53.326;10.356;2022-12-18T04:30:26;-1.40;90.80
7046;DHT22;3564;53.326;10.356;2022-12-18T04:32:51;-1.30;90.90
7046;DHT22;3564;53.326;10.356;2022-12-18T04:35:17;-1.30;90.90
7046;DHT22;3564;53.326;10.356;2022-12-18T04:37:42;-1.30;90.90
7046;DHT22;3564;53.326;10.356;2022-12-18T04:40:08;-1.20;90.90
7046;DHT22;3564;53.326;10.356;2022-12-18T04:42:34;-1.20;90.80
7046;DHT22;3564;53.326;10.356;2022-12-18T04:44:59;-1.20;90.80
7046;DHT22;3564;53.326;10.356;2022-12-18T04:47:25;-1.20;90.80
7046;DHT22;3564;53.326;10.356;2022-12-18T04:49:51;-1.20;90.70
7046;DHT22;3564;53.326;10.356;2022-12-18T04:52:16;-1.20;90.80
7046;DHT22;3564;53.326;10.356;2022-12-18T04:54:42;-1.20;90.70
7046;DHT22;3564;53.326;10.356;2022-12-18T04:57:07;-1.20;90.60
7046;DHT22;3564;53.326;10.356;2022-12-18T04:59:33;-1.20;90.50
7046;DHT22;3564;53.326;10.356;2022-12-18T05:01:58;-1.20;90.60
7046;DHT22;3564;53.326;10.356;2022-12-18T05:04:24;-1.20;90.70
7046;DHT22;3564;53.326;10.356;2022-12-18T05:06:52;-1.20;90.60
7046;DHT22;3564;53.326;10.356;2022-12-18T05:09:18;-1.10;90.60
7046;DHT22;3564;53.326;10.356;2022-12-18T05:11:43;-1.20;90.50
7046;DHT22;3564;53.326;10.356;2022-12-18T05:14:09;-1.10;90.50
7046;DHT22;3564;53.326;10.356;2022-12-18T05:16:34;-1.10;90.40
7046;DHT22;3564;53.326;10.356;2022-12-18T05:19:00;-1.10;90.40
7046;DHT22;3564;53.326;10.356;2022-12-18T05:21:25;-1.10;90.50
7046;DHT22;3564;53.326;10.356;2022-12-18T05:23:51;-1.10;90.40
7046;DHT22;3564;53.326;10.356;2022-12-18T05:26:18;-1.10;90.50
7046;DHT22;3564;53.326;10.356;2022-12-18T05:28:43;-1.10;90.40
7046;DHT22;3564;53.326;10.356;2022-12-18T05:31:09;-1.10;90.30
7046;DHT22;3564;53.326;10.356;2022-12-18T05:33:35;-1.10;90.20
7046;DHT22;3564;53.326;10.356;2022-12-18T05:36:03;-1.10;90.20
7046;DHT22;3564;53.326;10.356;2022-12-18T05:38:29;-1.10;90.10
7046;DHT22;3564;53.326;10.356;2022-12-18T05:40:55;-1.10;90.00
7046;DHT22;3564;53.326;10.356;2022-12-18T05:43:24;-1.10;90.00
7046;DHT22;3564;53.326;10.356;2022-12-18T05:45:52;-1.10;90.10
7046;DHT22;3564;53.326;10.356;2022-12-18T05:48:18;-1.10;90.10
7046;DHT22;3564;53.326;10.356;2022-12-18T05:50:45;-1.10;90.00
7046;DHT22;3564;53.326;10.356;2022-12-18T05:53:12;-1.10;90.00
7046;DHT22;3564;53.326;10.356;2022-12-18T05:55:40;-1.10;90.10
7046;DHT22;3564;53.326;10.356;2022-12-18T05:58:07;-1.20;89.80
7046;DHT22;3564;53.326;10.356;2022-12-18T06:00:35;-1.20;89.70
7046;DHT22;3564;53.326;10.356;2022-12-18T06:03:01;-1.20;89.70
7046;DHT22;3564;53.326;10.356;2022-12-18T06:05:27;-1.20;89.90
7046;DHT22;3564;53.326;10.356;2022-12-18T06:07:53;-1.20;90.00
7046;DHT22;3564;53.326;10.356;2022-12-18T06:10:19;-1.20;89.80
7046;DHT22;3564;53.326;10.356;2022-12-18T06:12:46;-1.20;90.00
7046;DHT22;3564;53.326;10.356;2022-12-18T06:15:11;-1.20;89.90
7046;DHT22;3564;53.326;10.356;2022-12-18T06:17:37;-1.30;89.60
7046;DHT22;3564;53.326;10.356;2022-12-18T06:20:04;-1.30;89.70
7046;DHT22;3564;53.326;10.356;2022-12-18T06:22:32;-1.30;89.60
7046;DHT22;3564;53.326;10.356;2022-12-18T06:25:00;-1.40;89.40
7046;DHT22;3564;53.326;10.356;2022-12-18T06:27:26;-1.40;89.70
7046;DHT22;3564;53.326;10.356;2022-12-18T06:29:51;-1.40;89.60
7046;DHT22;3564;53.326;10.356;2022-12-18T06:32:17;-1.40;89.60
7046;DHT22;3564;53.326;10.356;2022-12-18T06:34:43;-1.40;89.80
7046;DHT22;3564;53.326;10.356;2022-12-18T06:37:08;-1.50;89.70
7046;DHT22;3564;53.326;10.356;2022-12-18T06:39:34;-1.40;90.00
7046;DHT22;3564;53.326;10.356;2022-12-18T06:41:59;-1.50;90.00
7046;DHT22;3564;53.326;10.356;2022-12-18T06:44:25;-1.50;89.80
7046;DHT22;3564;53.326;10.356;2022-12-18T06:46:51;-1.50;89.70
7046;DHT22;3564;53.326;10.356;2022-12-18T06:49:17;-1.50;89.60
7046;DHT22;3564;53.326;10.356;2022-12-18T06:51:42;-1.50;89.40
7046;DHT22;3564;53.326;10.356;2022-12-18T06:54:08;-1.50;89.50
7046;DHT22;3564;53.326;10.356;2022-12-18T06:56:34;-1.50;89.40
7046;DHT22;3564;53.326;10.356;2022-12-18T06:59:00;-1.50;89.30
7046;DHT22;3564;53.326;10.356;2022-12-18T07:01:25;-1.60;89.20
7046;DHT22;3564;53.326;10.356;2022-12-18T07:03:53;-1.60;89.30
7046;DHT22;3564;53.326;10.356;2022-12-18T07:06:20;-1.60;89.50
7046;DHT22;3564;53.326;10.356;2022-12-18T07:08:47;-1.60;89.30
7046;DHT22;3564;53.326;10.356;2022-12-18T07:11:13;-1.60;89.20
7046;DHT22;3564;53.326;10.356;2022-12-18T07:13:39;-1.60;89.20
7046;DHT22;3564;53.326;10.356;2022-12-18T07:16:12;-1.60;89.40
7046;DHT22;3564;53.326;10.356;2022-12-18T07:18:38;-1.60;89.50
7046;DHT22;3564;53.326;10.356;2022-12-18T07:21:05;-1.60;89.40
7046;DHT22;3564;53.326;10.356;2022-12-18T07:23:33;-1.60;89.40
7046;DHT22;3564;53.326;10.356;2022-12-18T07:26:10;-1.60;89.40
7046;DHT22;3564;53.326;10.356;2022-12-18T07:28:37;-1.60;89.40
7046;DHT22;3564;53.326;10.356;2022-12-18T07:31:09;-1.60;89.30
7046;DHT22;3564;53.326;10.356;2022-12-18T07:33:35;-1.60;89.20
7046;DHT22;3564;53.326;10.356;2022-12-18T07:36:02;-1.60;89.10
7046;DHT22;3564;53.326;10.356;2022-12-18T07:38:29;-1.60;88.90
7046;DHT22;3564;53.326;10.356;2022-12-18T07:40:59;-1.60;88.90
7046;DHT22;3564;53.326;10.356;2022-12-18T07:43:25;-1.60;89.10
7046;DHT22;3564;53.326;10.356;2022-12-18T07:45:50;-1.60;89.20
7046;DHT22;3564;53.326;10.356;2022-12-18T07:48:16;-1.70;89.00
7046;DHT22;3564;53.326;10.356;2022-12-18T07:50:41;-1.60;89.80
7046;DHT22;3564;53.326;10.356;2022-12-18T07:53:07;-1.60;89.10
7046;DHT22;3564;53.326;10.356;2022-12-18T07:55:32;-1.70;89.00
7046;DHT22;3564;53.326;10.356;2022-12-18T07:58:01;-1.70;88.90
7046;DHT22;3564;53.326;10.356;2022-12-18T08:00:27;-1.70;89.10
7046;DHT22;3564;53.326;10.356;2022-12-18T08:02:53;-1.70;89.20
7046;DHT22;3564;53.326;10.356;2022-12-18T08:05:18;-1.70;89.50
7046;DHT22;3564;53.326;10.356;2022-12-18T08:07:44;-1.70;89.50
7046;DHT22;3564;53.326;10.356;2022-12-18T08:10:09;-1.60;89.80
7046;DHT22;3564;53.326;10.356;2022-12-18T08:12:35;-1.60;89.70
7046;DHT22;3564;53.326;10.356;2022-12-18T08:15:00;-1.60;89.30
7046;DHT22;3564;53.326;10.356;2022-12-18T08:17:26;-1.60;89.40
7046;DHT22;3564;53.326;10.356;2022-12-18T08:19:55;-1.50;89.40
7046;DHT22;3564;53.326;10.356;2022-12-18T08:22:20;-1.60;89.20
7046;DHT22;3564;53.326;10.356;2022-12-18T08:24:49;-1.50;89.10
7046;DHT22;3564;53.326;10.356;2022-12-18T08:27:14;-1.60;89.00
7046;DHT22;3564;53.326;10.356;2022-12-18T08:29:40;-1.50;88.90
7046;DHT22;3564;53.326;10.356;2022-12-18T08:32:06;-1.60;88.90
7046;DHT22;3564;53.326;10.356;2022-12-18T08:34:31;-1.60;89.10
7046;DHT22;3564;53.326;10.356;2022-12-18T08:36:57;-1.60;89.10
7046;DHT22;3564;53.326;10.356;2022-12-18T08:39:22;-1.60;89.30
7046;DHT22;3564;53.326;10.356;2022-12-18T08:41:48;-1.50;89.40
7046;DHT22;3564;53.326;10.356;2022-12-18T08:44:33;-1.60;89.20
7046;DHT22;3564;53.326;10.356;2022-12-18T08:47:06;-1.50;89.40
7046;DHT22;3564;53.326;10.356;2022-12-18T08:49:32;-1.50;89.60
7046;DHT22;3564;53.326;10.356;2022-12-18T08:51:57;-1.50;89.60
7046;DHT22;3564;53.326;10.356;2022-12-18T08:54:23;-1.50;89.40
7046;DHT22;3564;53.326;10.356;2022-12-18T08:56:49;-1.50;89.70
7046;DHT22;3564;53.326;10.356;2022-12-18T08:59:16;-1.40;89.90
7046;DHT22;3564;53.326;10.356;2022-12-18T09:01:42;-1.40;89.90
7046;DHT22;3564;53.326;10.356;2022-12-18T09:04:09;-1.40;89.80
7046;DHT22;3564;53.326;10.356;2022-12-18T09:06:35;-1.40;89.80
7046;DHT22;3564;53.326;10.356;2022-12-18T09:09:02;-1.40;89.90
7046;DHT22;3564;53.326;10.356;2022-12-18T09:11:28;-1.30;90.00
7046;DHT22;3564;53.326;10.356;2022-12-18T09:13:55;-1.30;90.00
7046;DHT22;3564;53.326;10.356;2022-12-18T09:16:20;-1.20;90.00
7046;DHT22;3564;53.326;10.356;2022-12-18T09:18:47;-1.20;90.00
7046;DHT22;3564;53.326;10.356;2022-12-18T09:21:15;-1.20;89.80
7046;DHT22;3564;53.326;10.356;2022-12-18T09:23:42;-1.10;90.00
7046;DHT22;3564;53.326;10.356;2022-12-18T09:26:08;-1.10;90.00
7046;DHT22;3564;53.326;10.356;2022-12-18T09:28:33;-1.00;90.00
7046;DHT22;3564;53.326;10.356;2022-12-18T09:31:03;-1.00;90.00
7046;DHT22;3564;53.326;10.356;2022-12-18T09:33:29;-1.00;90.00
7046;DHT22;3564;53.326;10.356;2022-12-18T09:35:55;-0.90;90.10
7046;DHT22;3564;53.326;10.356;2022-12-18T09:38:21;-0.90;90.20
7046;DHT22;3564;53.326;10.356;2022-12-18T09:40:51;-0.80;90.10
7046;DHT22;3564;53.326;10.356;2022-12-18T09:43:22;-0.80;90.00
7046;DHT22;3564;53.326;10.356;2022-12-18T09:45:55;-0.70;90.00
7046;DHT22;3564;53.326;10.356;2022-12-18T09:48:27;-0.70;90.00
7046;DHT22;3564;53.326;10.356;2022-12-18T09:50:59;-0.70;90.00
7046;DHT22;3564;53.326;10.356;2022-12-18T09:53:30;-0.70;89.90
7046;DHT22;3564;53.326;10.356;2022-12-18T09:55:57;-0.60;89.90
7046;DHT22;3564;53.326;10.356;2022-12-18T09:58:41;-0.60;89.80
7046;DHT22;3564;53.326;10.356;2022-12-18T10:01:14;-0.50;90.00
7046;DHT22;3564;53.326;10.356;2022-12-18T10:03:41;-0.50;90.00
7046;DHT22;3564;53.326;10.356;2022-12-18T10:20:12;-0.20;90.20
7046;DHT22;3564;53.326;10.356;2022-12-18T10:23:01;-0.20;90.30
7046;DHT22;3564;53.326;10.356;2022-12-18T10:28:13;-0.10;90.40
7046;DHT22;3564;53.326;10.356;2022-12-18T10:30:40;-0.10;90.40
7046;DHT22;3564;53.326;10.356;2022-12-18T10:33:11;0.00;90.40
7046;DHT22;3564;53.326;10.356;2022-12-18T10:35:41;0.00;90.30
7046;DHT22;3564;53.326;10.356;2022-12-18T10:40:54;0.10;90.30
7046;DHT22;3564;53.326;10.356;2022-12-18T10:43:22;0.20;90.30
7046;DHT22;3564;53.326;10.356;2022-12-18T10:48:39;0.20;90.50
7046;DHT22;3564;53.326;10.356;2022-12-18T10:51:06;0.30;90.40
7046;DHT22;3564;53.326;10.356;2022-12-18T10:53:36;0.30;90.30
7046;DHT22;3564;53.326;10.356;2022-12-18T10:56:04;0.30;90.30
7046;DHT22;3564;53.326;10.356;2022-12-18T10:58:33;0.40;90.30
7046;DHT22;3564;53.326;10.356;2022-12-18T11:01:17;0.50;90.50
7046;DHT22;3564;53.326;10.356;2022-12-18T11:03:45;0.50;90.50
7046;DHT22;3564;53.326;10.356;2022-12-18T11:06:16;0.50;90.50
7046;DHT22;3564;53.326;10.356;2022-12-18T11:08:43;0.60;90.60
7046;DHT22;3564;53.326;10.356;2022-12-18T11:11:36;0.60;90.50
7046;DHT22;3564;53.326;10.356;2022-12-18T11:14:04;0.70;90.50
7046;DHT22;3564;53.326;10.356;2022-12-18T11:16:44;0.70;90.40
7046;DHT22;3564;53.326;10.356;2022-12-18T11:21:49;0.80;90.30
7046;DHT22;3564;53.326;10.356;2022-12-18T11:24:38;0.90;90.30
7046;DHT22;3564;53.326;10.356;2022-12-18T11:27:05;0.90;90.30
7046;DHT22;3564;53.326;10.356;2022-12-18T11:29:40;0.90;90.30
7046;DHT22;3564;53.326;10.356;2022-12-18T11:32:43;1.00;90.30
7046;DHT22;3564;53.326;10.356;2022-12-18T11:35:28;1.00;90.30
7046;DHT22;3564;53.326;10.356;2022-12-18T11:38:04;1.10;90.40
7046;DHT22;3564;53.326;10.356;2022-12-18T11:40:36;1.10;90.30
7046;DHT22;3564;53.326;10.356;2022-12-18T11:43:15;1.10;90.30
7046;DHT22;3564;53.326;10.356;2022-12-18T11:45:56;1.20;90.30
7046;DHT22;3564;53.326;10.356;2022-12-18T11:48:45;1.20;90.30
7046;DHT22;3564;53.326;10.356;2022-12-18T11:51:15;1.30;90.40
7046;DHT22;3564;53.326;10.356;2022-12-18T11:53:46;1.30;90.40
7046;DHT22;3564;53.326;10.356;2022-12-18T11:56:35;1.30;90.40
7046;DHT22;3564;53.326;10.356;2022-12-18T12:01:55;1.40;90.70
7046;DHT22;3564;53.326;10.356;2022-12-18T12:04:34;1.40;90.40
7046;DHT22;3564;53.326;10.356;2022-12-18T12:07:38;1.40;90.40
7046;DHT22;3564;53.326;10.356;2022-12-18T12:16:03;1.50;90.70
7046;DHT22;3564;53.326;10.356;2022-12-18T12:18:46;1.60;90.70
7046;DHT22;3564;53.326;10.356;2022-12-18T12:21:34;1.60;90.60
7046;DHT22;3564;53.326;10.356;2022-12-18T12:24:36;1.70;90.70
7046;DHT22;3564;53.326;10.356;2022-12-18T12:39:44;1.80;90.40
7046;DHT22;3564;53.326;10.356;2022-12-18T12:42:18;1.80;90.70
7046;DHT22;3564;53.326;10.356;2022-12-18T12:45:05;1.80;90.70
7046;DHT22;3564;53.326;10.356;2022-12-18T12:47:38;1.90;90.50
7046;DHT22;3564;53.326;10.356;2022-12-18T12:50:14;1.80;90.60
7046;DHT22;3564;53.326;10.356;2022-12-18T12:52:53;1.90;90.70
7046;DHT22;3564;53.326;10.356;2022-12-18T12:55:26;1.90;90.70
7046;DHT22;3564;53.326;10.356;2022-12-18T13:00:22;2.00;90.80
7046;DHT22;3564;53.326;10.356;2022-12-18T13:05:56;2.00;90.80
7046;DHT22;3564;53.326;10.356;2022-12-18T13:08:30;2.10;90.60
7046;DHT22;3564;53.326;10.356;2022-12-18T13:10:58;2.10;90.80
7046;DHT22;3564;53.326;10.356;2022-12-18T13:13:54;2.10;90.50
7046;DHT22;3564;53.326;10.356;2022-12-18T13:16:24;2.10;90.50
7046;DHT22;3564;53.326;10.356;2022-12-18T13:18:52;2.20;90.60
7046;DHT22;3564;53.326;10.356;2022-12-18T13:21:30;2.20;90.50
7046;DHT22;3564;53.326;10.356;2022-12-18T13:24:23;2.20;90.50
7046;DHT22;3564;53.326;10.356;2022-12-18T13:26:49;2.20;90.50
7046;DHT22;3564;53.326;10.356;2022-12-18T13:32:21;2.20;90.50
7046;DHT22;3564;53.326;10.356;2022-12-18T13:35:12;2.20;90.50
7046;DHT22;3564;53.326;10.356;2022-12-18T13:37:43;2.20;90.60
7046;DHT22;3564;53.326;10.356;2022-12-18T13:46:00;2.20;90.60
7046;DHT22;3564;53.326;10.356;2022-12-18T13:48:28;2.10;90.50
7046;DHT22;3564;53.326;10.356;2022-12-18T13:51:17;2.20;90.60
7046;DHT22;3564;53.326;10.356;2022-12-18T13:56:23;2.10;90.60
7046;DHT22;3564;53.326;10.356;2022-12-18T13:59:05;2.10;90.60
7046;DHT22;3564;53.326;10.356;2022-12-18T14:01:35;2.10;90.70
7046;DHT22;3564;53.326;10.356;2022-12-18T14:04:11;2.00;90.80
7046;DHT22;3564;53.326;10.356;2022-12-18T14:06:38;2.00;90.80
7046;DHT22;3564;53.326;10.356;2022-12-18T14:09:04;2.00;90.80
7046;DHT22;3564;53.326;10.356;2022-12-18T14:11:30;2.00;90.80
7046;DHT22;3564;53.326;10.356;2022-12-18T14:13:57;2.00;90.80
7046;DHT22;3564;53.326;10.356;2022-12-18T14:16:23;2.00;90.80
7046;DHT22;3564;53.326;10.356;2022-12-18T14:18:54;1.90;90.80
7046;DHT22;3564;53.326;10.356;2022-12-18T14:21:29;2.00;90.80
7046;DHT22;3564;53.326;10.356;2022-12-18T14:24:16;1.90;90.90
7046;DHT22;3564;53.326;10.356;2022-12-18T14:26:42;1.90;90.90
7046;DHT22;3564;53.326;10.356;2022-12-18T14:29:24;1.90;90.90
7046;DHT22;3564;53.326;10.356;2022-12-18T14:34:39;1.90;91.20
7046;DHT22;3564;53.326;10.356;2022-12-18T14:37:07;1.90;91.20
7046;DHT22;3564;53.326;10.356;2022-12-18T14:39:35;1.90;91.20
7046;DHT22;3564;53.326;10.356;2022-12-18T14:42:00;1.90;91.40
7046;DHT22;3564;53.326;10.356;2022-12-18T14:44:26;1.80;91.00
7046;DHT22;3564;53.326;10.356;2022-12-18T14:46:53;1.80;91.10
7046;DHT22;3564;53.326;10.356;2022-12-18T14:51:55;1.80;91.10
7046;DHT22;3564;53.326;10.356;2022-12-18T14:54:23;1.80;91.10
7046;DHT22;3564;53.326;10.356;2022-12-18T14:56:53;1.80;91.10
7046;DHT22;3564;53.326;10.356;2022-12-18T14:59:23;1.70;91.10
7046;DHT22;3564;53.326;10.356;2022-12-18T15:02:20;1.70;91.20
7046;DHT22;3564;53.326;10.356;2022-12-18T15:04:46;1.60;91.10
7046;DHT22;3564;53.326;10.356;2022-12-18T15:07:17;1.60;91.10
7046;DHT22;3564;53.326;10.356;2022-12-18T15:23:12;1.50;91.40
7046;DHT22;3564;53.326;10.356;2022-12-18T15:25:38;1.50;91.40
7046;DHT22;3564;53.326;10.356;2022-12-18T15:28:21;1.50;91.30
7046;DHT22;3564;53.326;10.356;2022-12-18T15:33:26;1.40;91.40
7046;DHT22;3564;53.326;10.356;2022-12-18T15:36:09;1.40;91.30
7046;DHT22;3564;53.326;10.356;2022-12-18T15:38:35;1.40;91.40
7046;DHT22;3564;53.326;10.356;2022-12-18T15:41:01;1.40;91.40
7046;DHT22;3564;53.326;10.356;2022-12-18T15:43:28;1.40;91.40
7046;DHT22;3564;53.326;10.356;2022-12-18T15:46:13;1.40;91.40
7046;DHT22;3564;53.326;10.356;2022-12-18T15:48:44;1.30;91.40
7046;DHT22;3564;53.326;10.356;2022-12-18T15:51:29;1.40;91.50
7046;DHT22;3564;53.326;10.356;2022-12-18T15:53:56;1.40;91.70
7046;DHT22;3564;53.326;10.356;2022-12-18T15:56:24;1.40;91.70
7046;DHT22;3564;53.326;10.356;2022-12-18T15:59:16;1.40;91.70
7046;DHT22;3564;53.326;10.356;2022-12-18T16:01:46;1.40;91.70
7046;DHT22;3564;53.326;10.356;2022-12-18T16:04:13;1.40;91.70
7046;DHT22;3564;53.326;10.356;2022-12-18T16:06:40;1.50;91.80
7046;DHT22;3564;53.326;10.356;2022-12-18T16:09:06;1.50;91.80
7046;DHT22;3564;53.326;10.356;2022-12-18T16:11:33;1.50;91.70
7046;DHT22;3564;53.326;10.356;2022-12-18T16:14:21;1.50;91.70
7046;DHT22;3564;53.326;10.356;2022-12-18T16:16:50;1.50;91.70
7046;DHT22;3564;53.326;10.356;2022-12-18T16:19:16;1.60;91.80
7046;DHT22;3564;53.326;10.356;2022-12-18T16:21:42;1.50;91.80
7046;DHT22;3564;53.326;10.356;2022-12-18T16:24:19;1.50;91.70
7046;DHT22;3564;53.326;10.356;2022-12-18T16:26:47;1.50;91.70
7046;DHT22;3564;53.326;10.356;2022-12-18T16:29:14;1.50;91.80
7046;DHT22;3564;53.326;10.356;2022-12-18T16:31:40;1.50;91.80
7046;DHT22;3564;53.326;10.356;2022-12-18T16:36:40;1.60;91.90
7046;DHT22;3564;53.326;10.356;2022-12-18T16:39:05;1.60;92.00
7046;DHT22;3564;53.326;10.356;2022-12-18T16:41:31;1.60;91.90
7046;DHT22;3564;53.326;10.356;2022-12-18T16:43:58;1.60;91.80
7046;DHT22;3564;53.326;10.356;2022-12-18T16:46:23;1.60;91.70
7046;DHT22;3564;53.326;10.356;2022-12-18T16:48:49;1.70;91.80
7046;DHT22;3564;53.326;10.356;2022-12-18T16:51:14;1.70;91.70
7046;DHT22;3564;53.326;10.356;2022-12-18T16:53:40;1.70;91.70
7046;DHT22;3564;53.326;10.356;2022-12-18T16:56:06;1.70;91.60
7046;DHT22;3564;53.326;10.356;2022-12-18T16:58:33;1.70;91.60
7046;DHT22;3564;53.326;10.356;2022-12-18T17:00:59;1.80;91.60
7046;DHT22;3564;53.326;10.356;2022-12-18T17:03:25;1.80;91.60
7046;DHT22;3564;53.326;10.356;2022-12-18T17:05:50;1.80;91.50
7046;DHT22;3564;53.326;10.356;2022-12-18T17:08:16;1.80;91.50
7046;DHT22;3564;53.326;10.356;2022-12-18T17:10:41;1.80;91.50
7046;DHT22;3564;53.326;10.356;2022-12-18T17:13:07;1.80;91.60
7046;DHT22;3564;53.326;10.356;2022-12-18T17:15:36;1.80;91.50
7046;DHT22;3564;53.326;10.356;2022-12-18T17:18:02;1.90;91.50
7046;DHT22;3564;53.326;10.356;2022-12-18T17:20:29;1.90;91.70
7046;DHT22;3564;53.326;10.356;2022-12-18T17:22:55;1.90;91.50
7046;DHT22;3564;53.326;10.356;2022-12-18T17:25:20;1.90;91.50
7046;DHT22;3564;53.326;10.356;2022-12-18T17:27:46;1.90;91.50
7046;DHT22;3564;53.326;10.356;2022-12-18T17:30:12;1.90;91.50
7046;DHT22;3564;53.326;10.356;2022-12-18T17:32:37;1.90;91.40
7046;DHT22;3564;53.326;10.356;2022-12-18T17:35:03;1.90;91.40
7046;DHT22;3564;53.326;10.356;2022-12-18T17:37:29;1.90;91.40
7046;DHT22;3564;53.326;10.356;2022-12-18T17:39:54;1.90;91.40
7046;DHT22;3564;53.326;10.356;2022-12-18T17:42:20;1.90;91.40
7046;DHT22;3564;53.326;10.356;2022-12-18T17:44:46;1.90;91.40
7046;DHT22;3564;53.326;10.356;2022-12-18T17:47:12;1.90;91.30
7046;DHT22;3564;53.326;10.356;2022-12-18T17:49:38;1.90;91.30
7046;DHT22;3564;53.326;10.356;2022-12-18T17:52:04;1.90;91.20
7046;DHT22;3564;53.326;10.356;2022-12-18T17:54:29;1.90;91.20
7046;DHT22;3564;53.326;10.356;2022-12-18T17:56:55;1.90;91.30
7046;DHT22;3564;53.326;10.356;2022-12-18T17:59:21;2.00;91.30
7046;DHT22;3564;53.326;10.356;2022-12-18T18:01:47;2.00;91.20
7046;DHT22;3564;53.326;10.356;2022-12-18T18:04:13;2.00;91.20
7046;DHT22;3564;53.326;10.356;2022-12-18T18:06:39;2.00;91.20